Time;durP1;ratioP1;P1;durP2;ratioP2;P2;SDS_P1;SDS_P2;PMS_P1;PMS_P2;Temp;Humidity;BMP_temperature;BMP_pressure;BME280_temperature;BME280_humidity;BME280_pressure;Samples;Min_cycle;Max_cycle;Signal;HPM_P1;HPM_P2
2021/01/27 00:00:17;;;;;;;8.57;7.67;;;3.90;99.90;;;;;;5013862;28;20434;-76
2021/01/27 00:02:43;;;;;;;9.20;8.17;;;3.90;99.90;;;;;;4998026;28;20175;-75
2021/01/27 00:05:14;;;;;;;8.60;7.70;;;3.90;99.90;;;;;;5007681;28;20458;-75
2021/01/27 00:07:40;;;;;;;8.33;7.27;;;3.90;99.90;;;;;;5006707;28;20731;-76
2021/01/27 00:10:06;;;;;;;13.20;8.37;;;3.80;99.90;;;;;;5002875;28;20407;-75
2021/01/27 00:12:33;;;;;;;7.73;6.77;;;3.80;99.90;;;;;;4997046;28;20413;-76
2021/01/27 00:14:58;;;;;;;9.47;7.43;;;3.70;99.90;;;;;;4997202;28;20969;-75
2021/01/27 00:17:24;;;;;;;8.87;6.30;;;3.80;99.90;;;;;;5015049;28;20427;-74
2021/01/27 00:19:49;;;;;;;7.07;6.40;;;3.70;99.90;;;;;;5002137;28;20177;-75
2021/01/27 00:22:15;;;;;;;8.90;7.40;;;3.60;99.90;;;;;;5010214;28;20672;-74
2021/01/27 00:24:40;;;;;;;7.40;6.70;;;3.60;99.90;;;;;;4997620;28;20225;-75
2021/01/27 00:27:06;;;;;;;10.30;8.17;;;3.60;99.90;;;;;;5006339;28;20269;-75
2021/01/27 00:29:31;;;;;;;9.87;7.83;;;3.60;99.90;;;;;;4993080;28;20533;-75
2021/01/27 00:31:57;;;;;;;10.20;8.07;;;3.60;99.90;;;;;;5007288;28;20604;-75
2021/01/27 00:34:22;;;;;;;8.60;7.67;;;3.60;99.90;;;;;;5005870;28;20219;-75
2021/01/27 00:36:50;;;;;;;7.83;7.03;;;3.50;99.90;;;;;;4981762;28;20573;-74
2021/01/27 00:39:16;;;;;;;8.67;7.40;;;3.50;99.90;;;;;;4976443;28;20207;-74
2021/01/27 00:41:41;;;;;;;8.67;7.77;;;3.50;99.90;;;;;;4982488;28;20938;-75
2021/01/27 00:44:07;;;;;;;8.73;7.33;;;3.50;99.90;;;;;;4974471;28;20462;-75
2021/01/27 00:46:34;;;;;;;7.70;6.90;;;3.50;99.90;;;;;;4990995;28;20192;-77
2021/01/27 00:48:59;;;;;;;7.90;6.80;;;3.60;99.90;;;;;;4982674;28;20417;-76
2021/01/27 00:51:26;;;;;;;7.80;7.00;;;3.50;99.90;;;;;;4999373;28;20924;-75
2021/01/27 00:53:52;;;;;;;7.70;6.90;;;3.50;99.90;;;;;;5009898;28;20175;-75
2021/01/27 00:56:19;;;;;;;8.67;6.80;;;3.50;99.90;;;;;;4994410;28;20451;-75
2021/01/27 00:58:45;;;;;;;10.27;7.30;;;3.50;99.90;;;;;;5006037;28;21084;-75
2021/01/27 01:01:11;;;;;;;8.67;6.70;;;3.50;99.90;;;;;;4998854;28;20507;-76
2021/01/27 01:03:36;;;;;;;9.40;7.50;;;3.50;99.90;;;;;;5004122;28;20176;-76
2021/01/27 01:06:02;;;;;;;9.33;7.63;;;3.40;99.90;;;;;;5020907;28;20200;-76
2021/01/27 01:08:27;;;;;;;7.97;6.80;;;3.40;99.90;;;;;;4996354;28;20178;-75
2021/01/27 01:10:54;;;;;;;7.77;7.03;;;3.40;99.90;;;;;;4995546;28;20171;-75
2021/01/27 01:13:23;;;;;;;7.80;6.90;;;3.40;99.90;;;;;;4994689;28;20627;-75
2021/01/27 01:15:48;;;;;;;6.60;6.00;;;3.40;99.90;;;;;;4993249;28;20456;-76
2021/01/27 01:18:14;;;;;;;6.50;5.90;;;3.40;99.90;;;;;;5000171;28;20444;-74
2021/01/27 01:20:40;;;;;;;8.23;6.50;;;3.40;99.90;;;;;;5000776;28;20216;-74
2021/01/27 01:23:06;;;;;;;8.50;6.40;;;3.40;99.90;;;;;;5001720;28;20390;-75
2021/01/27 01:25:33;;;;;;;7.10;6.50;;;3.30;99.90;;;;;;4995130;28;20530;-75
2021/01/27 01:28:00;;;;;;;8.03;6.90;;;3.30;99.90;;;;;;4994764;28;20472;-75
2021/01/27 01:30:28;;;;;;;7.77;6.93;;;3.30;99.90;;;;;;4994485;28;20511;-75
2021/01/27 01:32:56;;;;;;;6.57;5.97;;;3.30;99.90;;;;;;4994617;28;20511;-75
2021/01/27 01:35:22;;;;;;;6.93;6.23;;;3.30;99.90;;;;;;4994551;28;20466;-75
2021/01/27 01:37:47;;;;;;;9.10;6.97;;;3.30;99.90;;;;;;4994424;28;20911;-75
2021/01/27 01:40:22;;;;;;;7.23;6.50;;;3.30;99.90;;;;;;4993827;28;20451;-75
2021/01/27 01:43:07;;;;;;;8.37;7.47;;;3.20;99.90;;;;;;4994239;28;20246;-75
2021/01/27 01:45:45;;;;;;;7.40;6.70;;;3.30;99.90;;;;;;4975646;28;20460;-74
2021/01/27 01:48:16;;;;;;;10.30;7.90;;;3.30;99.90;;;;;;4976383;28;20432;-74
2021/01/27 01:50:44;;;;;;;7.67;6.37;;;3.20;99.90;;;;;;4992153;28;20476;-74
2021/01/27 01:53:11;;;;;;;8.30;7.00;;;3.30;99.90;;;;;;4993959;28;20499;-74
2021/01/27 01:55:37;;;;;;;7.70;6.53;;;3.30;99.90;;;;;;4994836;28;20443;-74
2021/01/27 01:58:03;;;;;;;8.03;6.73;;;3.20;99.90;;;;;;4995591;28;20412;-74
2021/01/27 02:00:30;;;;;;;7.67;6.90;;;3.30;99.90;;;;;;4992334;28;20205;-74
2021/01/27 02:02:56;;;;;;;8.70;6.30;;;3.30;99.90;;;;;;4993642;28;20435;-75
2021/01/27 02:05:24;;;;;;;7.03;6.17;;;3.30;99.90;;;;;;4992660;28;20464;-74
2021/01/27 02:07:50;;;;;;;8.33;7.27;;;3.30;99.90;;;;;;4993984;28;20259;-74
2021/01/27 02:10:18;;;;;;;6.83;6.10;;;3.30;99.90;;;;;;4995151;28;20400;-75
2021/01/27 02:13:20;;;;;;;7.13;6.43;;;3.30;99.90;;;;;;4997816;28;20868;-74
2021/01/27 02:16:19;;;;;;;7.17;6.47;;;3.30;99.90;;;;;;4997933;28;20756;-74
2021/01/27 02:18:58;;;;;;;6.83;6.07;;;3.30;99.90;;;;;;4998078;28;20440;-74
2021/01/27 02:21:26;;;;;;;7.97;6.57;;;3.30;99.90;;;;;;4998333;28;20513;-74
2021/01/27 02:24:26;;;;;;;7.90;6.73;;;3.30;99.90;;;;;;4997279;28;20448;-74
2021/01/27 02:27:20;;;;;;;8.70;6.37;;;3.40;99.90;;;;;;4997923;28;20411;-74
2021/01/27 02:30:21;;;;;;;6.70;6.00;;;3.40;99.90;;;;;;4998241;28;20908;-74
2021/01/27 02:32:54;;;;;;;7.33;5.70;;;3.40;99.90;;;;;;4998153;28;20410;-74
2021/01/27 02:35:38;;;;;;;8.67;6.50;;;3.40;99.90;;;;;;4996550;28;20535;-74
2021/01/27 02:38:14;;;;;;;6.80;6.00;;;3.40;99.90;;;;;;4998183;28;20411;-74
2021/01/27 02:40:53;;;;;;;7.53;6.10;;;3.40;99.90;;;;;;4997234;28;20402;-75
2021/01/27 02:43:25;;;;;;;8.80;7.10;;;3.40;99.90;;;;;;4996888;28;20461;-75
2021/01/27 02:46:21;;;;;;;7.33;6.27;;;3.30;99.90;;;;;;4997567;28;20504;-75
2021/01/27 02:48:57;;;;;;;8.47;6.00;;;3.20;99.90;;;;;;4996679;28;20567;-75
2021/01/27 02:51:33;;;;;;;6.07;5.43;;;3.20;99.90;;;;;;4997289;28;20401;-75
2021/01/27 02:54:19;;;;;;;9.03;6.67;;;3.20;99.90;;;;;;4996817;28;20875;-75
2021/01/27 02:56:52;;;;;;;9.00;5.87;;;3.30;99.90;;;;;;4997204;28;20403;-75
2021/01/27 02:59:28;;;;;;;6.77;5.87;;;3.20;99.90;;;;;;4996363;28;20440;-74
2021/01/27 03:02:17;;;;;;;8.20;5.40;;;3.20;99.90;;;;;;4996798;28;20408;-74
2021/01/27 03:05:14;;;;;;;6.03;5.40;;;3.20;99.90;;;;;;4996123;28;20493;-74
2021/01/27 03:07:42;;;;;;;6.73;5.40;;;3.20;99.90;;;;;;4994552;28;20436;-75
2021/01/27 03:10:48;;;;;;;5.73;5.17;;;3.10;99.90;;;;;;4995678;28;20891;-76
2021/01/27 03:13:14;;;;;;;6.77;5.10;;;3.20;99.90;;;;;;4957396;29;20415;-76
2021/01/27 03:15:39;;;;;;;6.23;5.57;;;3.20;99.90;;;;;;4942247;29;20446;-74
2021/01/27 03:18:18;;;;;;;7.20;5.53;;;3.20;99.90;;;;;;4936911;29;20188;-74
2021/01/27 03:20:46;;;;;;;7.67;5.60;;;3.20;99.90;;;;;;4937065;29;20268;-74
2021/01/27 03:23:17;;;;;;;4.90;4.20;;;3.20;99.90;;;;;;4935614;29;20893;-74
2021/01/27 03:25:58;;;;;;;5.73;4.47;;;3.20;99.90;;;;;;4928106;29;20448;-74
2021/01/27 03:28:28;;;;;;;5.20;4.17;;;3.20;99.90;;;;;;4955716;29;20911;-74
2021/01/27 03:30:54;;;;;;;4.87;3.73;;;3.20;99.90;;;;;;4956097;29;20845;-74
2021/01/27 03:33:25;;;;;;;5.47;4.17;;;3.30;99.90;;;;;;4955425;28;20497;-74
2021/01/27 03:35:55;;;;;;;3.67;3.37;;;3.20;99.90;;;;;;4950469;29;20215;-74
2021/01/27 03:38:28;;;;;;;4.93;3.80;;;3.30;99.90;;;;;;4935917;29;20416;-74
2021/01/27 03:40:58;;;;;;;5.47;3.30;;;3.30;99.90;;;;;;4936263;29;20431;-75
2021/01/27 03:43:32;;;;;;;3.40;3.10;;;3.30;99.90;;;;;;4937194;29;20935;-75
2021/01/27 03:46:08;;;;;;;4.50;3.63;;;3.30;99.90;;;;;;4955434;28;20474;-75
2021/01/27 03:48:42;;;;;;;3.83;3.50;;;3.20;99.90;;;;;;4967671;28;20446;-77
2021/01/27 03:51:10;;;;;;;7.00;3.80;;;3.30;99.90;;;;;;4991537;28;20424;-76
2021/01/27 03:53:36;;;;;;;5.57;3.73;;;3.30;99.90;;;;;;4994075;28;20536;-76
2021/01/27 03:56:11;;;;;;;5.40;4.60;;;3.30;99.90;;;;;;5006104;28;20488;-76
2021/01/27 03:58:43;;;;;;;10.33;4.53;;;3.30;99.90;;;;;;4998379;28;20183;-75
2021/01/27 04:01:11;;;;;;;4.80;4.30;;;3.40;99.90;;;;;;4997417;28;20413;-75
2021/01/27 04:03:38;;;;;;;4.17;3.77;;;3.40;99.90;;;;;;4996496;28;20421;-74
2021/01/27 04:06:04;;;;;;;6.87;4.67;;;3.40;99.90;;;;;;4994988;28;20484;-74
2021/01/27 04:08:30;;;;;;;5.53;4.53;;;3.40;99.90;;;;;;4994887;28;20438;-76
2021/01/27 04:10:56;;;;;;;6.50;4.53;;;3.40;99.90;;;;;;4997763;28;20430;-75
2021/01/27 04:13:21;;;;;;;6.50;4.70;;;3.40;99.90;;;;;;5002672;28;20627;-76
2021/01/27 04:15:47;;;;;;;6.50;4.87;;;3.40;99.90;;;;;;4998760;28;20253;-76
2021/01/27 04:18:13;;;;;;;4.87;4.27;;;3.40;99.90;;;;;;4996509;28;20188;-75
2021/01/27 04:20:38;;;;;;;4.17;3.77;;;3.40;99.90;;;;;;4996773;28;20193;-75
2021/01/27 04:23:04;;;;;;;4.13;3.83;;;3.40;99.90;;;;;;4999470;28;20177;-76
2021/01/27 04:25:30;;;;;;;6.83;4.37;;;3.40;99.90;;;;;;5007076;28;20212;-75
2021/01/27 04:27:56;;;;;;;4.77;4.20;;;3.40;99.90;;;;;;4997091;28;20480;-76
2021/01/27 04:30:25;;;;;;;4.77;4.27;;;3.40;99.90;;;;;;4997523;28;20266;-75
2021/01/27 04:32:51;;;;;;;4.40;4.00;;;3.40;99.90;;;;;;4997645;28;20191;-75
2021/01/27 04:35:18;;;;;;;3.87;3.47;;;3.40;99.90;;;;;;4997195;28;20452;-75
2021/01/27 04:37:44;;;;;;;5.93;4.13;;;3.40;99.90;;;;;;4997045;28;20493;-75
2021/01/27 04:40:21;;;;;;;6.00;4.23;;;3.40;99.90;;;;;;4997667;28;20422;-76
2021/01/27 04:42:49;;;;;;;6.37;4.10;;;3.40;99.90;;;;;;4996740;28;20515;-75
2021/01/27 04:45:16;;;;;;;3.83;3.50;;;3.50;99.90;;;;;;4996685;28;20463;-75
2021/01/27 04:48:27;;;;;;;5.10;3.90;;;3.40;99.90;;;;;;4995552;28;20778;-76
2021/01/27 04:50:58;;;;;;;4.23;3.83;;;3.50;99.90;;;;;;4994491;28;20481;-76
2021/01/27 04:53:32;;;;;;;3.70;3.40;;;3.50;99.90;;;;;;4979410;28;20497;-76
2021/01/27 04:56:31;;;;;;;4.20;3.80;;;3.50;99.90;;;;;;4978655;28;20815;-77
2021/01/27 04:59:12;;;;;;;4.23;3.67;;;3.40;99.90;;;;;;4978450;28;20941;-76
2021/01/27 05:01:38;;;;;;;4.83;3.80;;;3.50;99.90;;;;;;4994185;28;20426;-75
2021/01/27 05:04:31;;;;;;;4.53;4.00;;;3.40;99.90;;;;;;4977328;28;20418;-75
2021/01/27 05:07:03;;;;;;;4.23;3.80;;;3.50;99.90;;;;;;4992922;28;20297;-75
2021/01/27 05:09:33;;;;;;;5.53;4.50;;;3.50;99.90;;;;;;4993650;28;20445;-75
2021/01/27 05:12:02;;;;;;;10.03;4.63;;;3.40;99.90;;;;;;4990469;28;20432;-75
2021/01/27 05:14:29;;;;;;;5.10;3.93;;;3.50;99.90;;;;;;4994300;28;20441;-75
2021/01/27 05:16:56;;;;;;;4.23;3.80;;;3.50;99.90;;;;;;4994421;28;20426;-76
2021/01/27 05:19:22;;;;;;;4.87;4.37;;;3.50;99.90;;;;;;4993555;28;20435;-75
2021/01/27 05:21:53;;;;;;;4.60;3.93;;;3.50;99.90;;;;;;4992498;28;20424;-75
2021/01/27 05:24:19;;;;;;;4.20;3.60;;;3.50;99.90;;;;;;4995317;28;20548;-76
2021/01/27 05:26:50;;;;;;;4.03;3.63;;;3.40;99.90;;;;;;4995511;28;20398;-76
2021/01/27 05:29:24;;;;;;;3.70;3.37;;;3.40;99.90;;;;;;4995757;28;20505;-76
2021/01/27 05:32:02;;;;;;;3.77;3.30;;;3.40;99.90;;;;;;4996226;28;20451;-75
2021/01/27 05:34:36;;;;;;;3.47;3.17;;;3.40;99.90;;;;;;4994606;28;20449;-76
2021/01/27 05:37:09;;;;;;;5.73;3.70;;;3.40;99.90;;;;;;4995217;28;20411;-75
2021/01/27 05:39:36;;;;;;;3.87;3.20;;;3.30;99.90;;;;;;4995622;28;20403;-75
2021/01/27 05:42:18;;;;;;;3.90;3.60;;;3.40;99.90;;;;;;4995394;28;20823;-75
2021/01/27 05:44:44;;;;;;;3.73;3.30;;;3.40;99.90;;;;;;4994375;28;20461;-75
2021/01/27 05:47:39;;;;;;;4.73;4.27;;;3.40;99.90;;;;;;4993704;28;20468;-75
2021/01/27 05:50:21;;;;;;;3.87;3.47;;;3.40;99.90;;;;;;4996187;28;20420;-75
2021/01/27 05:52:47;;;;;;;4.17;3.53;;;3.40;99.90;;;;;;5012234;28;20396;-75
2021/01/27 05:55:13;;;;;;;4.60;3.73;;;3.40;99.90;;;;;;5012873;28;20936;-75
2021/01/27 05:57:41;;;;;;;4.17;3.80;;;3.40;99.90;;;;;;5011970;28;20987;-75
2021/01/27 06:00:24;;;;;;;6.37;3.77;;;3.40;99.90;;;;;;5012117;28;20434;-75
2021/01/27 06:02:50;;;;;;;4.60;4.20;;;3.40;99.90;;;;;;5012021;28;20428;-75
2021/01/27 06:05:26;;;;;;;6.40;4.30;;;3.40;99.90;;;;;;4995445;28;20517;-75
2021/01/27 06:07:51;;;;;;;5.23;4.20;;;3.40;99.90;;;;;;5011887;28;20435;-75
2021/01/27 06:10:37;;;;;;;4.90;3.90;;;3.40;99.90;;;;;;5012545;28;20425;-75
2021/01/27 06:13:19;;;;;;;4.90;3.90;;;3.30;99.90;;;;;;5011958;28;20653;-75
2021/01/27 06:15:45;;;;;;;4.80;4.13;;;3.40;99.90;;;;;;5012024;28;20515;-75
2021/01/27 06:18:24;;;;;;;4.70;4.03;;;3.40;99.90;;;;;;5012226;28;20415;-75
2021/01/27 06:20:59;;;;;;;7.10;4.27;;;3.40;99.90;;;;;;4996232;28;20622;-75
2021/01/27 06:24:02;;;;;;;4.90;4.50;;;3.40;99.90;;;;;;5013015;28;20409;-75
2021/01/27 06:26:27;;;;;;;4.90;4.40;;;3.40;99.90;;;;;;5004460;28;20459;-76
2021/01/27 06:28:59;;;;;;;5.33;3.97;;;3.40;99.90;;;;;;4999493;28;20436;-75
2021/01/27 06:31:48;;;;;;;3.93;3.63;;;3.40;99.90;;;;;;5012838;28;20200;-75
2021/01/27 06:34:43;;;;;;;6.87;3.83;;;3.40;99.90;;;;;;5001466;28;20522;-75
2021/01/27 06:37:15;;;;;;;4.10;3.67;;;3.40;99.90;;;;;;5014562;28;20416;-75
2021/01/27 06:39:53;;;;;;;4.33;3.67;;;3.30;99.90;;;;;;5022815;28;20441;-76
2021/01/27 06:42:37;;;;;;;4.50;4.10;;;3.30;99.90;;;;;;5000821;28;20932;-75
2021/01/27 06:45:37;;;;;;;4.70;3.90;;;3.30;99.90;;;;;;4989497;28;20483;-75
2021/01/27 06:48:34;;;;;;;5.23;3.53;;;3.30;99.90;;;;;;4995108;28;20414;-76
2021/01/27 06:51:35;;;;;;;4.70;4.03;;;3.30;99.90;;;;;;5000910;28;20442;-75
2021/01/27 06:54:16;;;;;;;3.90;3.50;;;3.30;99.90;;;;;;4991998;28;20426;-75
2021/01/27 06:57:02;;;;;;;4.17;3.57;;;3.30;99.90;;;;;;4989862;28;20972;-76
2021/01/27 06:59:51;;;;;;;3.53;3.23;;;3.30;99.90;;;;;;4990081;28;20454;-76
2021/01/27 07:02:38;;;;;;;5.00;4.20;;;3.30;99.90;;;;;;4985226;28;20447;-77
2021/01/27 07:05:30;;;;;;;4.37;3.97;;;3.30;99.90;;;;;;4990548;28;20469;-76
2021/01/27 07:08:21;;;;;;;3.90;3.40;;;3.30;99.90;;;;;;4992532;28;20446;-76
2021/01/27 07:11:04;;;;;;;4.63;3.70;;;3.30;99.90;;;;;;4982173;28;20413;-76
2021/01/27 07:13:55;;;;;;;5.00;4.07;;;3.30;99.90;;;;;;4990529;28;20436;-75
2021/01/27 07:16:35;;;;;;;4.93;4.17;;;3.30;99.90;;;;;;4991626;28;20521;-76
2021/01/27 07:19:26;;;;;;;3.93;3.63;;;3.30;99.90;;;;;;4991748;28;20428;-76
2021/01/27 07:22:19;;;;;;;4.30;3.97;;;3.30;99.90;;;;;;4990894;28;20412;-76
2021/01/27 07:24:53;;;;;;;5.50;4.30;;;3.40;99.90;;;;;;4998501;28;20511;-75
2021/01/27 07:27:21;;;;;;;4.40;3.83;;;3.30;99.90;;;;;;4996530;28;20422;-76
2021/01/27 07:30:08;;;;;;;4.33;3.90;;;3.30;99.90;;;;;;4996498;28;20418;-76
2021/01/27 07:32:41;;;;;;;6.07;3.97;;;3.30;99.90;;;;;;4997235;28;20408;-75
2021/01/27 07:35:35;;;;;;;4.33;3.50;;;3.20;99.90;;;;;;4996879;28;20463;-76
2021/01/27 07:38:07;;;;;;;4.47;4.07;;;3.20;99.90;;;;;;4986438;28;20874;-76
2021/01/27 07:40:49;;;;;;;4.50;4.10;;;3.20;99.90;;;;;;4994213;28;20490;-78
2021/01/27 07:43:30;;;;;;;5.47;4.37;;;3.20;99.90;;;;;;5013535;28;20416;-76
2021/01/27 07:45:56;;;;;;;5.40;4.47;;;3.20;99.90;;;;;;5001183;28;20579;-76
2021/01/27 07:48:28;;;;;;;4.87;4.37;;;3.30;99.90;;;;;;5003242;28;20424;-76
2021/01/27 07:51:03;;;;;;;5.97;4.60;;;3.30;99.90;;;;;;5008733;28;20198;-76
2021/01/27 07:53:35;;;;;;;5.30;4.80;;;3.30;99.90;;;;;;5014709;28;20446;-76
2021/01/27 07:56:18;;;;;;;4.30;4.00;;;3.30;99.90;;;;;;5003740;28;20501;-78
2021/01/27 07:58:52;;;;;;;5.20;4.70;;;3.30;99.90;;;;;;5012842;28;20414;-76
2021/01/27 08:01:21;;;;;;;9.10;4.83;;;3.30;99.90;;;;;;5015007;28;20434;-77
2021/01/27 08:04:04;;;;;;;4.77;4.30;;;3.30;99.90;;;;;;5015906;28;20724;-76
2021/01/27 08:06:42;;;;;;;4.97;4.10;;;3.30;99.90;;;;;;5013897;28;20468;-77
2021/01/27 08:09:09;;;;;;;4.60;3.73;;;3.30;99.90;;;;;;5014262;28;20440;-76
2021/01/27 08:11:39;;;;;;;5.03;4.57;;;3.30;99.90;;;;;;5010693;28;20410;-76
2021/01/27 08:14:08;;;;;;;4.90;4.30;;;3.30;99.90;;;;;;5006945;28;20417;-76
2021/01/27 08:16:47;;;;;;;5.30;4.43;;;3.30;99.90;;;;;;5011662;28;20437;-76
2021/01/27 08:19:12;;;;;;;4.13;3.73;;;3.30;99.90;;;;;;5010530;28;20423;-77
2021/01/27 08:21:51;;;;;;;4.70;4.37;;;3.30;99.90;;;;;;5013403;28;20785;-76
2021/01/27 08:24:35;;;;;;;3.87;3.57;;;3.30;99.90;;;;;;5003583;28;20195;-76
2021/01/27 08:27:10;;;;;;;3.90;3.60;;;3.30;99.90;;;;;;5010886;28;20436;-75
2021/01/27 08:29:41;;;;;;;4.33;3.77;;;3.30;99.90;;;;;;5013743;28;20421;-76
2021/01/27 08:32:32;;;;;;;4.10;3.70;;;3.40;99.90;;;;;;5015435;28;20405;-77
2021/01/27 08:35:08;;;;;;;3.67;3.37;;;3.30;99.90;;;;;;5017327;28;20445;-76
2021/01/27 08:37:37;;;;;;;4.20;3.23;;;3.30;99.90;;;;;;5013599;28;20404;-78
2021/01/27 08:40:06;;;;;;;4.10;3.73;;;3.30;99.90;;;;;;5011938;28;20419;-78
2021/01/27 08:42:42;;;;;;;3.70;3.30;;;3.40;99.90;;;;;;5010420;28;20782;-77
2021/01/27 08:45:11;;;;;;;3.13;2.83;;;3.40;99.90;;;;;;5013651;28;20462;-77
2021/01/27 08:47:39;;;;;;;4.73;3.90;;;3.40;99.90;;;;;;5014119;28;20988;-77
2021/01/27 08:50:10;;;;;;;2.83;2.63;;;3.40;99.90;;;;;;5007217;28;20489;-77
2021/01/27 08:52:39;;;;;;;3.80;3.27;;;3.50;99.90;;;;;;5008629;28;20486;-77
2021/01/27 08:55:33;;;;;;;3.50;3.20;;;3.50;99.90;;;;;;5016494;28;20796;-77
2021/01/27 08:58:27;;;;;;;3.90;3.60;;;3.50;99.90;;;;;;5004528;28;20443;-77
2021/01/27 09:00:56;;;;;;;3.10;2.90;;;3.50;99.90;;;;;;5016916;28;20473;-77
2021/01/27 09:03:37;;;;;;;3.00;2.80;;;3.50;99.90;;;;;;5000538;28;20416;-77
2021/01/27 09:06:05;;;;;;;4.50;2.97;;;3.50;99.90;;;;;;5012672;28;20461;-78
2021/01/27 09:08:32;;;;;;;2.90;2.63;;;3.50;99.90;;;;;;5002455;28;20521;-77
2021/01/27 09:11:03;;;;;;;3.73;3.37;;;3.50;99.90;;;;;;5016702;28;20503;-76
2021/01/27 09:13:34;;;;;;;3.20;2.90;;;3.60;99.90;;;;;;5009866;28;20417;-77
2021/01/27 09:16:05;;;;;;;3.53;3.23;;;3.50;99.90;;;;;;5016247;28;20444;-77
2021/01/27 09:18:32;;;;;;;4.00;3.70;;;3.50;99.90;;;;;;5010001;28;20398;-77
2021/01/27 09:21:15;;;;;;;3.47;2.80;;;3.40;99.90;;;;;;4995025;28;20512;-78
2021/01/27 09:23:43;;;;;;;2.90;2.70;;;3.50;99.90;;;;;;4997337;28;20406;-79
2021/01/27 09:26:18;;;;;;;3.47;2.83;;;3.50;99.90;;;;;;5016297;28;20495;-77
2021/01/27 09:28:44;;;;;;;3.47;3.20;;;3.50;99.90;;;;;;5007287;28;20435;-77
2021/01/27 09:31:18;;;;;;;4.50;3.80;;;3.50;99.90;;;;;;5007592;28;20524;-77
2021/01/27 09:33:44;;;;;;;4.40;4.03;;;3.60;99.90;;;;;;5008435;28;20617;-77
2021/01/27 09:36:13;;;;;;;4.60;4.20;;;3.60;99.90;;;;;;4982820;28;20440;-77
2021/01/27 09:38:38;;;;;;;5.27;4.77;;;3.70;99.90;;;;;;5015402;28;20440;-76
2021/01/27 09:41:30;;;;;;;4.30;4.00;;;3.70;99.90;;;;;;5015344;28;20509;-76
2021/01/27 09:43:56;;;;;;;4.93;4.50;;;3.80;99.90;;;;;;5015326;28;20654;-77
2021/01/27 09:46:29;;;;;;;4.73;4.33;;;3.70;99.90;;;;;;4996087;28;20464;-79
2021/01/27 09:49:01;;;;;;;4.63;4.23;;;3.70;99.90;;;;;;4994911;28;20882;-76
2021/01/27 09:51:27;;;;;;;4.93;4.53;;;3.70;99.90;;;;;;4995731;28;20930;-76
2021/01/27 09:53:59;;;;;;;4.03;3.73;;;3.80;99.90;;;;;;4997510;28;20424;-77
2021/01/27 09:56:25;;;;;;;4.40;4.00;;;3.80;99.90;;;;;;5012517;28;20506;-77
2021/01/27 09:58:51;;;;;;;6.30;4.23;;;3.80;99.90;;;;;;5014609;28;20823;-77
2021/01/27 10:01:20;;;;;;;5.17;4.70;;;3.80;99.90;;;;;;5014048;28;20495;-78
2021/01/27 10:03:48;;;;;;;3.93;3.63;;;3.80;99.90;;;;;;5010908;28;20414;-76
2021/01/27 10:06:35;;;;;;;3.70;3.40;;;3.70;99.90;;;;;;5001637;28;20831;-78
2021/01/27 10:09:20;;;;;;;4.13;3.73;;;3.80;99.90;;;;;;4993584;28;20405;-77
2021/01/27 10:11:56;;;;;;;4.13;3.80;;;3.80;99.90;;;;;;5019313;28;20405;-77
2021/01/27 10:14:24;;;;;;;4.00;3.70;;;3.80;99.90;;;;;;5023751;28;20453;-77
2021/01/27 10:16:51;;;;;;;4.40;4.00;;;3.80;99.90;;;;;;5015083;28;20826;-78
2021/01/27 10:19:25;;;;;;;5.47;4.17;;;3.80;99.90;;;;;;5011930;28;20470;-78
2021/01/27 10:21:53;;;;;;;4.97;4.47;;;3.90;99.90;;;;;;5020808;28;20416;-77
2021/01/27 10:24:47;;;;;;;5.30;4.73;;;3.90;99.90;;;;;;5017475;28;20452;-77
2021/01/27 10:27:18;;;;;;;5.43;4.93;;;3.90;99.90;;;;;;5005708;28;20436;-77
2021/01/27 10:29:44;;;;;;;4.60;4.20;;;4.00;99.90;;;;;;4996431;28;20422;-77
2021/01/27 10:32:33;;;;;;;4.20;3.90;;;4.00;99.90;;;;;;5015348;28;20402;-77
2021/01/27 10:35:01;;;;;;;4.50;4.10;;;4.00;99.90;;;;;;5013657;28;20265;-77
2021/01/27 10:37:38;;;;;;;5.63;5.13;;;4.10;99.90;;;;;;5004942;28;20936;-76
2021/01/27 10:40:24;;;;;;;4.07;3.70;;;4.10;99.90;;;;;;5015328;28;20421;-76
2021/01/27 10:42:57;;;;;;;4.20;3.90;;;4.10;99.90;;;;;;5008075;28;20473;-76
2021/01/27 10:45:43;;;;;;;3.60;3.40;;;4.00;99.90;;;;;;5019686;28;20466;-77
2021/01/27 10:48:11;;;;;;;4.20;3.77;;;4.10;99.90;;;;;;5011050;28;20502;-77
2021/01/27 10:50:51;;;;;;;3.93;3.63;;;4.10;99.90;;;;;;4996230;28;20450;-78
2021/01/27 10:53:19;;;;;;;4.50;4.10;;;4.20;99.90;;;;;;4996996;28;20414;-78
2021/01/27 10:55:53;;;;;;;4.03;3.73;;;4.20;99.90;;;;;;5015798;28;20880;-78
2021/01/27 10:58:19;;;;;;;3.53;3.23;;;4.20;99.90;;;;;;5015905;28;20468;-79
2021/01/27 11:00:45;;;;;;;3.70;3.40;;;4.30;99.90;;;;;;5010268;28;20436;-78
2021/01/27 11:03:13;;;;;;;4.03;3.73;;;4.30;99.90;;;;;;5018327;28;20420;-78
2021/01/27 11:05:39;;;;;;;4.33;3.80;;;4.30;99.90;;;;;;5008035;28;20454;-77
2021/01/27 11:08:06;;;;;;;4.40;4.00;;;4.40;99.90;;;;;;5012923;28;20453;-77
2021/01/27 11:10:32;;;;;;;4.63;4.13;;;4.40;99.90;;;;;;5017720;28;20776;-77
2021/01/27 11:12:58;;;;;;;4.87;4.40;;;4.50;99.90;;;;;;5008934;28;20508;-77
2021/01/27 11:15:24;;;;;;;4.90;4.40;;;4.50;99.90;;;;;;5013407;28;20470;-79
2021/01/27 11:17:50;;;;;;;4.87;4.47;;;4.60;99.90;;;;;;5016263;28;20185;-77
2021/01/27 11:20:22;;;;;;;5.10;4.40;;;4.60;99.90;;;;;;5017944;28;20411;-77
2021/01/27 11:22:52;;;;;;;5.03;4.57;;;4.70;99.90;;;;;;5003125;28;20454;-78
2021/01/27 11:25:21;;;;;;;5.10;4.67;;;4.60;99.90;;;;;;4998409;28;20593;-78
2021/01/27 11:27:47;;;;;;;5.00;4.60;;;4.60;99.90;;;;;;4999467;28;20538;-77
2021/01/27 11:30:16;;;;;;;4.70;4.30;;;4.70;99.90;;;;;;4999521;28;20457;-76
2021/01/27 11:32:42;;;;;;;5.03;4.53;;;4.70;99.90;;;;;;4993474;28;20470;-77
2021/01/27 11:35:08;;;;;;;7.70;5.00;;;4.80;99.90;;;;;;4997362;28;20872;-75
2021/01/27 11:37:34;;;;;;;5.70;5.10;;;4.80;99.90;;;;;;5013429;28;20182;-78
2021/01/27 11:40:00;;;;;;;5.70;5.17;;;4.90;99.90;;;;;;5002396;28;20446;-75
2021/01/27 11:42:25;;;;;;;6.33;5.30;;;4.90;99.90;;;;;;5012522;28;20199;-77
2021/01/27 11:44:51;;;;;;;5.73;5.20;;;4.90;99.90;;;;;;5012782;28;20261;-76
2021/01/27 11:47:16;;;;;;;6.67;5.77;;;4.90;99.90;;;;;;5016177;28;20552;-76
2021/01/27 11:49:45;;;;;;;5.70;5.20;;;4.80;99.90;;;;;;5007880;28;20180;-77
2021/01/27 11:52:12;;;;;;;6.27;5.37;;;4.70;99.90;;;;;;5000088;28;20182;-76
2021/01/27 11:54:40;;;;;;;5.20;4.70;;;4.70;99.90;;;;;;5003393;28;20442;-77
2021/01/27 11:57:07;;;;;;;5.07;4.67;;;4.70;99.90;;;;;;4998409;28;20796;-75
2021/01/27 11:59:34;;;;;;;5.20;4.80;;;4.80;99.90;;;;;;5008644;28;20848;-76
2021/01/27 12:02:01;;;;;;;4.90;4.50;;;4.90;99.90;;;;;;5007209;28;20538;-76
2021/01/27 12:04:33;;;;;;;6.27;5.00;;;4.90;99.90;;;;;;5009333;28;20887;-79
2021/01/27 12:06:58;;;;;;;4.87;4.43;;;4.90;99.90;;;;;;5011511;28;20944;-76
2021/01/27 12:09:24;;;;;;;6.27;5.20;;;4.80;99.90;;;;;;5008357;28;20421;-76
2021/01/27 12:11:49;;;;;;;6.43;5.83;;;4.90;99.90;;;;;;4961493;28;20210;-78
2021/01/27 12:14:15;;;;;;;5.80;5.30;;;4.90;99.90;;;;;;4999906;28;20213;-78
2021/01/27 12:16:44;;;;;;;4.60;4.20;;;4.90;99.90;;;;;;5009591;28;20186;-75
2021/01/27 12:19:09;;;;;;;5.67;5.10;;;5.00;99.90;;;;;;5015106;28;20592;-76
2021/01/27 12:21:35;;;;;;;5.37;4.97;;;5.00;99.90;;;;;;5011905;28;20446;-76
2021/01/27 12:24:03;;;;;;;6.27;5.70;;;5.00;99.90;;;;;;5004587;28;20185;-77
2021/01/27 12:26:28;;;;;;;5.73;5.20;;;4.90;99.90;;;;;;5011777;28;20208;-76
2021/01/27 12:28:54;;;;;;;5.10;4.60;;;4.90;99.90;;;;;;5020037;28;20434;-77
2021/01/27 12:31:20;;;;;;;5.17;4.67;;;5.00;99.90;;;;;;5010197;28;20187;-76
2021/01/27 12:33:45;;;;;;;5.23;4.73;;;5.00;99.90;;;;;;4994602;28;20263;-76
2021/01/27 12:36:11;;;;;;;5.77;5.17;;;5.00;99.90;;;;;;4988457;28;20207;-77
2021/01/27 12:38:37;;;;;;;6.30;5.53;;;5.00;99.90;;;;;;4993647;28;20175;-78
2021/01/27 12:41:02;;;;;;;6.33;5.67;;;4.90;99.90;;;;;;4985164;28;20223;-76
2021/01/27 12:43:28;;;;;;;6.73;5.90;;;4.90;99.90;;;;;;4999964;28;20845;-76
2021/01/27 12:45:54;;;;;;;6.10;5.50;;;4.90;99.90;;;;;;5012663;28;20253;-76
2021/01/27 12:48:20;;;;;;;5.33;4.83;;;4.90;99.90;;;;;;5005846;28;20176;-76
2021/01/27 12:50:46;;;;;;;4.70;4.20;;;4.90;99.90;;;;;;5013754;28;20424;-76
2021/01/27 12:53:11;;;;;;;5.33;4.83;;;5.00;99.90;;;;;;5015382;28;20178;-76
2021/01/27 12:55:37;;;;;;;5.30;4.80;;;5.00;99.90;;;;;;5004831;28;20199;-77
2021/01/27 12:58:03;;;;;;;5.77;5.23;;;4.80;99.90;;;;;;5003688;28;20184;-76
2021/01/27 13:00:29;;;;;;;5.20;4.70;;;4.90;99.90;;;;;;5014827;28;20634;-76
2021/01/27 13:02:55;;;;;;;5.90;5.20;;;4.90;99.90;;;;;;5012595;28;20501;-76
2021/01/27 13:05:24;;;;;;;5.97;5.37;;;4.90;99.90;;;;;;5002133;28;20548;-75
2021/01/27 13:07:49;;;;;;;8.57;6.50;;;4.90;99.90;;;;;;5006166;28;20780;-76
2021/01/27 13:10:17;;;;;;;8.07;6.10;;;4.80;99.90;;;;;;5009683;28;20473;-76
2021/01/27 13:12:43;;;;;;;7.17;5.83;;;4.80;99.90;;;;;;4996045;28;20180;-76
2021/01/27 13:15:12;;;;;;;10.30;6.20;;;4.80;99.90;;;;;;5011154;28;20445;-75
2021/01/27 13:17:38;;;;;;;6.90;6.20;;;4.80;99.90;;;;;;5013005;28;20417;-76
2021/01/27 13:20:09;;;;;;;8.37;6.77;;;4.90;99.90;;;;;;5007482;28;20525;-76
2021/01/27 13:22:35;;;;;;;11.10;7.93;;;4.90;99.90;;;;;;4991783;28;20225;-77
2021/01/27 13:25:01;;;;;;;8.70;6.67;;;4.80;99.90;;;;;;4999509;28;20458;-80